sensor_id;sensor_type;location;lat;lon;timestamp;P1;durP1;ratioP1;P2;durP2;ratioP2
13291;SDS011;6714;53.056;8.690;2023-05-10T00:00:34;8.20;;;7.33;;
13291;SDS011;6714;53.056;8.690;2023-05-10T00:03:16;7.93;;;7.33;;
13291;SDS011;6714;53.056;8.690;2023-05-10T00:05:58;7.13;;;6.57;;
13291;SDS011;6714;53.056;8.690;2023-05-10T00:08:40;7.00;;;6.40;;
13291;SDS011;6714;53.056;8.690;2023-05-10T00:11:24;8.27;;;7.67;;
13291;SDS011;6714;53.056;8.690;2023-05-10T00:14:08;9.07;;;8.27;;
13291;SDS011;6714;53.056;8.690;2023-05-10T00:16:51;9.53;;;8.70;;
13291;SDS011;6714;53.056;8.690;2023-05-10T00:19:33;8.13;;;7.43;;
13291;SDS011;6714;53.056;8.690;2023-05-10T00:22:16;9.70;;;8.80;;
13291;SDS011;6714;53.056;8.690;2023-05-10T00:24:58;8.63;;;7.83;;
13291;SDS011;6714;53.056;8.690;2023-05-10T00:27:42;8.60;;;7.90;;
13291;SDS011;6714;53.056;8.690;2023-05-10T00:30:24;8.27;;;7.57;;
13291;SDS011;6714;53.056;8.690;2023-05-10T00:33:06;8.23;;;7.43;;
13291;SDS011;6714;53.056;8.690;2023-05-10T00:35:56;7.90;;;7.20;;
13291;SDS011;6714;53.056;8.690;2023-05-10T00:38:38;7.57;;;6.87;;
13291;SDS011;6714;53.056;8.690;2023-05-10T00:41:21;7.23;;;6.63;;
13291;SDS011;6714;53.056;8.690;2023-05-10T00:44:07;7.73;;;7.10;;
13291;SDS011;6714;53.056;8.690;2023-05-10T00:46:50;7.13;;;6.53;;
13291;SDS011;6714;53.056;8.690;2023-05-10T00:49:32;7.10;;;6.50;;
13291;SDS011;6714;53.056;8.690;2023-05-10T00:52:15;7.20;;;6.20;;
13291;SDS011;6714;53.056;8.690;2023-05-10T00:54:57;5.57;;;5.17;;
13291;SDS011;6714;53.056;8.690;2023-05-10T00:57:41;5.53;;;5.13;;
13291;SDS011;6714;53.056;8.690;2023-05-10T01:00:25;5.10;;;4.70;;
13291;SDS011;6714;53.056;8.690;2023-05-10T01:03:07;5.27;;;4.87;;
13291;SDS011;6714;53.056;8.690;2023-05-10T01:05:54;4.67;;;4.33;;
13291;SDS011;6714;53.056;8.690;2023-05-10T01:08:36;5.50;;;5.10;;
13291;SDS011;6714;53.056;8.690;2023-05-10T01:11:19;4.57;;;4.27;;
13291;SDS011;6714;53.056;8.690;2023-05-10T01:14:02;4.50;;;4.10;;
13291;SDS011;6714;53.056;8.690;2023-05-10T01:16:47;4.60;;;4.30;;
13291;SDS011;6714;53.056;8.690;2023-05-10T01:19:31;4.43;;;4.13;;
13291;SDS011;6714;53.056;8.690;2023-05-10T01:22:33;5.23;;;4.50;;
13291;SDS011;6714;53.056;8.690;2023-05-10T01:25:23;4.50;;;4.20;;
13291;SDS011;6714;53.056;8.690;2023-05-10T01:31:15;4.50;;;4.10;;
13291;SDS011;6714;53.056;8.690;2023-05-10T01:34:02;4.20;;;3.90;;
13291;SDS011;6714;53.056;8.690;2023-05-10T01:36:51;4.20;;;3.90;;
13291;SDS011;6714;53.056;8.690;2023-05-10T01:39:36;4.07;;;3.77;;
13291;SDS011;6714;53.056;8.690;2023-05-10T01:42:21;4.03;;;3.73;;
13291;SDS011;6714;53.056;8.690;2023-05-10T01:45:07;4.27;;;3.87;;
13291;SDS011;6714;53.056;8.690;2023-05-10T01:47:54;4.17;;;3.80;;
13291;SDS011;6714;53.056;8.690;2023-05-10T01:50:41;4.53;;;4.00;;
13291;SDS011;6714;53.056;8.690;2023-05-10T01:53:24;3.83;;;3.53;;
13291;SDS011;6714;53.056;8.690;2023-05-10T01:56:07;4.10;;;3.80;;
13291;SDS011;6714;53.056;8.690;2023-05-10T01:58:52;4.00;;;3.70;;
13291;SDS011;6714;53.056;8.690;2023-05-10T02:01:34;4.33;;;3.90;;
13291;SDS011;6714;53.056;8.690;2023-05-10T02:04:19;3.57;;;3.37;;
13291;SDS011;6714;53.056;8.690;2023-05-10T02:07:02;3.80;;;3.57;;
13291;SDS011;6714;53.056;8.690;2023-05-10T02:09:45;3.90;;;3.60;;
13291;SDS011;6714;53.056;8.690;2023-05-10T02:12:28;3.80;;;3.50;;
13291;SDS011;6714;53.056;8.690;2023-05-10T02:15:11;3.53;;;3.33;;
13291;SDS011;6714;53.056;8.690;2023-05-10T02:17:55;4.00;;;3.70;;
13291;SDS011;6714;53.056;8.690;2023-05-10T02:20:37;4.07;;;3.77;;
13291;SDS011;6714;53.056;8.690;2023-05-10T02:23:22;4.00;;;3.60;;
13291;SDS011;6714;53.056;8.690;2023-05-10T02:26:05;3.73;;;3.53;;
13291;SDS011;6714;53.056;8.690;2023-05-10T02:28:50;3.90;;;3.60;;
13291;SDS011;6714;53.056;8.690;2023-05-10T02:31:33;4.10;;;3.80;;
13291;SDS011;6714;53.056;8.690;2023-05-10T02:34:18;4.00;;;3.70;;
13291;SDS011;6714;53.056;8.690;2023-05-10T02:37:01;3.80;;;3.50;;
13291;SDS011;6714;53.056;8.690;2023-05-10T02:39:45;4.83;;;3.73;;
13291;SDS011;6714;53.056;8.690;2023-05-10T02:42:29;4.30;;;3.93;;
13291;SDS011;6714;53.056;8.690;2023-05-10T02:45:14;4.30;;;3.90;;
13291;SDS011;6714;53.056;8.690;2023-05-10T02:47:56;3.73;;;3.53;;
13291;SDS011;6714;53.056;8.690;2023-05-10T02:50:39;4.10;;;3.70;;
13291;SDS011;6714;53.056;8.690;2023-05-10T02:53:27;3.83;;;3.57;;
13291;SDS011;6714;53.056;8.690;2023-05-10T02:56:14;4.07;;;3.77;;
13291;SDS011;6714;53.056;8.690;2023-05-10T02:58:58;4.03;;;3.73;;
13291;SDS011;6714;53.056;8.690;2023-05-10T03:01:40;3.70;;;3.50;;
13291;SDS011;6714;53.056;8.690;2023-05-10T03:04:24;4.47;;;4.17;;
13291;SDS011;6714;53.056;8.690;2023-05-10T03:07:06;4.83;;;3.80;;
13291;SDS011;6714;53.056;8.690;2023-05-10T03:09:51;4.40;;;4.00;;
13291;SDS011;6714;53.056;8.690;2023-05-10T03:12:40;4.03;;;3.73;;
13291;SDS011;6714;53.056;8.690;2023-05-10T03:15:25;3.60;;;3.30;;
13291;SDS011;6714;53.056;8.690;2023-05-10T03:18:12;4.50;;;4.10;;
13291;SDS011;6714;53.056;8.690;2023-05-10T03:20:59;3.97;;;3.67;;
13291;SDS011;6714;53.056;8.690;2023-05-10T03:23:46;3.87;;;3.60;;
13291;SDS011;6714;53.056;8.690;2023-05-10T03:26:29;4.47;;;4.07;;
13291;SDS011;6714;53.056;8.690;2023-05-10T03:29:13;3.93;;;3.63;;
13291;SDS011;6714;53.056;8.690;2023-05-10T03:31:56;4.53;;;3.60;;
13291;SDS011;6714;53.056;8.690;2023-05-10T03:34:41;3.83;;;3.53;;
13291;SDS011;6714;53.056;8.690;2023-05-10T03:37:23;4.00;;;3.70;;
13291;SDS011;6714;53.056;8.690;2023-05-10T03:40:05;4.03;;;3.73;;
13291;SDS011;6714;53.056;8.690;2023-05-10T03:42:48;3.80;;;3.50;;
13291;SDS011;6714;53.056;8.690;2023-05-10T03:45:34;3.80;;;3.50;;
13291;SDS011;6714;53.056;8.690;2023-05-10T03:48:16;4.27;;;3.87;;
13291;SDS011;6714;53.056;8.690;2023-05-10T03:50:58;4.37;;;4.07;;
13291;SDS011;6714;53.056;8.690;2023-05-10T03:53:40;4.13;;;3.80;;
13291;SDS011;6714;53.056;8.690;2023-05-10T03:56:23;4.00;;;3.60;;
13291;SDS011;6714;53.056;8.690;2023-05-10T03:59:05;3.67;;;3.43;;
13291;SDS011;6714;53.056;8.690;2023-05-10T04:01:51;4.73;;;4.07;;
13291;SDS011;6714;53.056;8.690;2023-05-10T04:04:35;5.33;;;3.80;;
13291;SDS011;6714;53.056;8.690;2023-05-10T04:07:17;4.63;;;4.27;;
13291;SDS011;6714;53.056;8.690;2023-05-10T04:10:04;4.20;;;3.80;;
13291;SDS011;6714;53.056;8.690;2023-05-10T04:12:48;3.80;;;3.40;;
13291;SDS011;6714;53.056;8.690;2023-05-10T04:15:30;4.13;;;3.83;;
13291;SDS011;6714;53.056;8.690;2023-05-10T04:18:14;4.73;;;4.33;;
13291;SDS011;6714;53.056;8.690;2023-05-10T04:20:57;4.30;;;4.00;;
13291;SDS011;6714;53.056;8.690;2023-05-10T04:23:40;4.53;;;4.13;;
13291;SDS011;6714;53.056;8.690;2023-05-10T04:26:22;5.03;;;4.40;;
13291;SDS011;6714;53.056;8.690;2023-05-10T04:29:05;5.23;;;4.20;;
13291;SDS011;6714;53.056;8.690;2023-05-10T04:31:48;4.30;;;4.00;;
13291;SDS011;6714;53.056;8.690;2023-05-10T04:34:32;4.47;;;4.07;;
13291;SDS011;6714;53.056;8.690;2023-05-10T04:37:15;3.93;;;3.63;;
13291;SDS011;6714;53.056;8.690;2023-05-10T04:39:57;4.43;;;3.87;;
13291;SDS011;6714;53.056;8.690;2023-05-10T04:42:40;4.27;;;3.87;;
13291;SDS011;6714;53.056;8.690;2023-05-10T04:45:23;3.67;;;3.43;;
13291;SDS011;6714;53.056;8.690;2023-05-10T04:48:05;3.80;;;3.50;;
13291;SDS011;6714;53.056;8.690;2023-05-10T04:50:53;4.13;;;3.83;;
13291;SDS011;6714;53.056;8.690;2023-05-10T04:53:36;6.80;;;4.10;;
13291;SDS011;6714;53.056;8.690;2023-05-10T04:56:18;5.10;;;3.83;;
13291;SDS011;6714;53.056;8.690;2023-05-10T04:59:02;4.30;;;3.90;;
13291;SDS011;6714;53.056;8.690;2023-05-10T05:01:44;4.33;;;3.93;;
13291;SDS011;6714;53.056;8.690;2023-05-10T05:04:26;5.40;;;4.07;;
13291;SDS011;6714;53.056;8.690;2023-05-10T05:07:10;4.77;;;4.07;;
13291;SDS011;6714;53.056;8.690;2023-05-10T05:09:52;3.70;;;3.40;;
13291;SDS011;6714;53.056;8.690;2023-05-10T05:12:35;5.27;;;4.10;;
13291;SDS011;6714;53.056;8.690;2023-05-10T05:15:17;4.77;;;3.87;;
13291;SDS011;6714;53.056;8.690;2023-05-10T05:17:59;4.43;;;4.13;;
13291;SDS011;6714;53.056;8.690;2023-05-10T05:20:41;4.90;;;4.20;;
13291;SDS011;6714;53.056;8.690;2023-05-10T05:23:28;4.30;;;3.90;;
13291;SDS011;6714;53.056;8.690;2023-05-10T05:26:10;4.40;;;4.00;;
13291;SDS011;6714;53.056;8.690;2023-05-10T05:28:53;4.20;;;3.73;;
13291;SDS011;6714;53.056;8.690;2023-05-10T05:31:35;4.30;;;3.90;;
13291;SDS011;6714;53.056;8.690;2023-05-10T05:34:19;4.37;;;3.97;;
13291;SDS011;6714;53.056;8.690;2023-05-10T05:37:02;4.13;;;3.53;;
13291;SDS011;6714;53.056;8.690;2023-05-10T05:39:45;4.13;;;3.83;;
13291;SDS011;6714;53.056;8.690;2023-05-10T05:42:28;4.37;;;3.97;;
13291;SDS011;6714;53.056;8.690;2023-05-10T05:45:10;4.10;;;3.80;;
13291;SDS011;6714;53.056;8.690;2023-05-10T05:47:53;4.27;;;3.97;;
13291;SDS011;6714;53.056;8.690;2023-05-10T05:50:35;4.40;;;3.80;;
13291;SDS011;6714;53.056;8.690;2023-05-10T05:53:18;4.23;;;3.80;;
13291;SDS011;6714;53.056;8.690;2023-05-10T05:56:02;4.33;;;4.00;;
13291;SDS011;6714;53.056;8.690;2023-05-10T05:58:44;4.93;;;4.43;;
13291;SDS011;6714;53.056;8.690;2023-05-10T06:01:26;4.30;;;3.90;;
13291;SDS011;6714;53.056;8.690;2023-05-10T06:04:09;5.27;;;4.07;;
13291;SDS011;6714;53.056;8.690;2023-05-10T06:06:52;4.83;;;4.33;;
13291;SDS011;6714;53.056;8.690;2023-05-10T06:09:34;4.07;;;3.73;;
13291;SDS011;6714;53.056;8.690;2023-05-10T06:12:18;5.20;;;4.70;;
13291;SDS011;6714;53.056;8.690;2023-05-10T06:15:00;4.57;;;4.17;;
13291;SDS011;6714;53.056;8.690;2023-05-10T06:17:42;4.67;;;4.17;;
13291;SDS011;6714;53.056;8.690;2023-05-10T06:20:24;4.57;;;4.17;;
13291;SDS011;6714;53.056;8.690;2023-05-10T06:23:07;4.27;;;3.97;;
13291;SDS011;6714;53.056;8.690;2023-05-10T06:25:49;5.20;;;4.20;;
13291;SDS011;6714;53.056;8.690;2023-05-10T06:28:35;4.60;;;4.20;;
13291;SDS011;6714;53.056;8.690;2023-05-10T06:31:19;5.10;;;4.70;;
13291;SDS011;6714;53.056;8.690;2023-05-10T06:34:01;4.53;;;4.13;;
13291;SDS011;6714;53.056;8.690;2023-05-10T06:36:43;5.20;;;4.70;;
13291;SDS011;6714;53.056;8.690;2023-05-10T06:39:25;4.50;;;4.10;;
13291;SDS011;6714;53.056;8.690;2023-05-10T06:42:09;4.20;;;3.90;;
13291;SDS011;6714;53.056;8.690;2023-05-10T06:44:53;4.40;;;4.00;;
13291;SDS011;6714;53.056;8.690;2023-05-10T06:47:35;4.87;;;4.47;;
13291;SDS011;6714;53.056;8.690;2023-05-10T06:50:17;4.37;;;3.97;;
13291;SDS011;6714;53.056;8.690;2023-05-10T06:52:59;4.40;;;4.00;;
13291;SDS011;6714;53.056;8.690;2023-05-10T06:55:42;4.30;;;4.00;;
13291;SDS011;6714;53.056;8.690;2023-05-10T06:58:24;3.73;;;3.43;;
13291;SDS011;6714;53.056;8.690;2023-05-10T07:01:08;3.93;;;3.57;;
13291;SDS011;6714;53.056;8.690;2023-05-10T07:03:50;3.50;;;3.20;;
13291;SDS011;6714;53.056;8.690;2023-05-10T07:06:33;3.10;;;2.90;;
13291;SDS011;6714;53.056;8.690;2023-05-10T07:09:16;2.80;;;2.60;;
13291;SDS011;6714;53.056;8.690;2023-05-10T07:11:58;2.80;;;2.60;;
13291;SDS011;6714;53.056;8.690;2023-05-10T07:14:41;2.77;;;2.57;;
13291;SDS011;6714;53.056;8.690;2023-05-10T07:17:25;2.63;;;2.50;;
13291;SDS011;6714;53.056;8.690;2023-05-10T07:20:08;2.97;;;2.77;;
13291;SDS011;6714;53.056;8.690;2023-05-10T07:22:50;2.57;;;2.37;;
13291;SDS011;6714;53.056;8.690;2023-05-10T07:25:32;2.47;;;2.30;;
13291;SDS011;6714;53.056;8.690;2023-05-10T07:28:15;2.67;;;2.50;;
13291;SDS011;6714;53.056;8.690;2023-05-10T07:30:57;2.67;;;2.47;;
13291;SDS011;6714;53.056;8.690;2023-05-10T07:33:41;2.70;;;2.50;;
13291;SDS011;6714;53.056;8.690;2023-05-10T07:36:23;2.77;;;2.57;;
13291;SDS011;6714;53.056;8.690;2023-05-10T07:39:06;2.33;;;2.23;;
13291;SDS011;6714;53.056;8.690;2023-05-10T07:41:48;2.77;;;2.57;;
13291;SDS011;6714;53.056;8.690;2023-05-10T07:44:30;2.77;;;2.57;;
13291;SDS011;6714;53.056;8.690;2023-05-10T07:47:12;2.63;;;2.53;;
13291;SDS011;6714;53.056;8.690;2023-05-10T07:49:56;3.20;;;2.90;;
13291;SDS011;6714;53.056;8.690;2023-05-10T07:52:38;2.37;;;2.27;;
13291;SDS011;6714;53.056;8.690;2023-05-10T07:55:20;3.07;;;2.83;;
13291;SDS011;6714;53.056;8.690;2023-05-10T07:58:02;3.00;;;2.80;;
13291;SDS011;6714;53.056;8.690;2023-05-10T08:00:45;2.43;;;2.23;;
13291;SDS011;6714;53.056;8.690;2023-05-10T08:03:28;3.13;;;2.83;;
13291;SDS011;6714;53.056;8.690;2023-05-10T08:06:12;2.30;;;2.20;;
13291;SDS011;6714;53.056;8.690;2023-05-10T08:08:54;2.60;;;2.50;;
13291;SDS011;6714;53.056;8.690;2023-05-10T08:11:36;2.57;;;2.47;;
13291;SDS011;6714;53.056;8.690;2023-05-10T08:14:18;3.13;;;2.90;;
13291;SDS011;6714;53.056;8.690;2023-05-10T08:17:01;2.20;;;2.10;;
13291;SDS011;6714;53.056;8.690;2023-05-10T08:19:43;2.60;;;2.33;;
13291;SDS011;6714;53.056;8.690;2023-05-10T08:22:27;2.83;;;2.63;;
13291;SDS011;6714;53.056;8.690;2023-05-10T08:25:09;2.47;;;2.37;;
13291;SDS011;6714;53.056;8.690;2023-05-10T08:27:51;2.10;;;2.00;;
13291;SDS011;6714;53.056;8.690;2023-05-10T08:30:34;2.07;;;1.97;;
13291;SDS011;6714;53.056;8.690;2023-05-10T08:33:17;2.20;;;2.10;;
13291;SDS011;6714;53.056;8.690;2023-05-10T08:35:59;2.93;;;2.73;;
13291;SDS011;6714;53.056;8.690;2023-05-10T08:38:43;2.27;;;2.17;;
13291;SDS011;6714;53.056;8.690;2023-05-10T08:41:25;2.67;;;2.57;;
13291;SDS011;6714;53.056;8.690;2023-05-10T08:44:07;1.70;;;1.70;;
13291;SDS011;6714;53.056;8.690;2023-05-10T08:46:50;2.07;;;1.97;;
13291;SDS011;6714;53.056;8.690;2023-05-10T08:49:35;1.60;;;1.60;;
13291;SDS011;6714;53.056;8.690;2023-05-10T08:52:19;1.73;;;1.53;;
13291;SDS011;6714;53.056;8.690;2023-05-10T08:55:03;1.63;;;1.53;;
13291;SDS011;6714;53.056;8.690;2023-05-10T08:57:46;1.60;;;1.50;;
13291;SDS011;6714;53.056;8.690;2023-05-10T09:00:29;1.70;;;1.60;;
13291;SDS011;6714;53.056;8.690;2023-05-10T09:03:11;1.80;;;1.70;;
13291;SDS011;6714;53.056;8.690;2023-05-10T09:05:53;1.73;;;1.63;;
13291;SDS011;6714;53.056;8.690;2023-05-10T09:08:37;2.17;;;1.77;;
13291;SDS011;6714;53.056;8.690;2023-05-10T09:11:21;1.53;;;1.53;;
13291;SDS011;6714;53.056;8.690;2023-05-10T09:14:04;1.50;;;1.50;;
13291;SDS011;6714;53.056;8.690;2023-05-10T09:16:47;1.80;;;1.70;;
13291;SDS011;6714;53.056;8.690;2023-05-10T09:19:29;2.20;;;2.00;;
13291;SDS011;6714;53.056;8.690;2023-05-10T09:22:11;1.50;;;1.50;;
13291;SDS011;6714;53.056;8.690;2023-05-10T09:25:04;1.83;;;1.73;;
13291;SDS011;6714;53.056;8.690;2023-05-10T09:27:48;2.00;;;1.90;;
13291;SDS011;6714;53.056;8.690;2023-05-10T09:30:30;1.80;;;1.80;;
13291;SDS011;6714;53.056;8.690;2023-05-10T09:33:12;3.13;;;2.27;;
13291;SDS011;6714;53.056;8.690;2023-05-10T09:35:54;2.43;;;2.27;;
13291;SDS011;6714;53.056;8.690;2023-05-10T09:38:44;1.97;;;1.87;;
13291;SDS011;6714;53.056;8.690;2023-05-10T09:41:27;2.63;;;2.50;;
13291;SDS011;6714;53.056;8.690;2023-05-10T09:44:11;1.90;;;1.80;;
13291;SDS011;6714;53.056;8.690;2023-05-10T09:46:53;2.13;;;2.03;;
13291;SDS011;6714;53.056;8.690;2023-05-10T09:49:36;1.97;;;1.87;;
13291;SDS011;6714;53.056;8.690;2023-05-10T09:52:18;2.37;;;2.27;;
13291;SDS011;6714;53.056;8.690;2023-05-10T09:55:00;2.33;;;2.23;;
13291;SDS011;6714;53.056;8.690;2023-05-10T09:57:44;2.23;;;2.13;;
13291;SDS011;6714;53.056;8.690;2023-05-10T10:00:28;1.80;;;1.70;;
13291;SDS011;6714;53.056;8.690;2023-05-10T10:03:16;2.00;;;1.90;;
13291;SDS011;6714;53.056;8.690;2023-05-10T10:05:59;1.63;;;1.53;;
13291;SDS011;6714;53.056;8.690;2023-05-10T10:08:41;1.40;;;1.40;;
13291;SDS011;6714;53.056;8.690;2023-05-10T10:11:23;1.60;;;1.50;;
13291;SDS011;6714;53.056;8.690;2023-05-10T10:14:06;1.50;;;1.50;;
13291;SDS011;6714;53.056;8.690;2023-05-10T10:16:49;1.60;;;1.50;;
13291;SDS011;6714;53.056;8.690;2023-05-10T10:19:32;1.40;;;1.40;;
13291;SDS011;6714;53.056;8.690;2023-05-10T10:22:15;1.60;;;1.60;;
13291;SDS011;6714;53.056;8.690;2023-05-10T10:24:58;1.50;;;1.40;;
13291;SDS011;6714;53.056;8.690;2023-05-10T10:27:43;1.40;;;1.40;;
13291;SDS011;6714;53.056;8.690;2023-05-10T10:30:27;1.70;;;1.70;;
13291;SDS011;6714;53.056;8.690;2023-05-10T10:33:24;2.13;;;2.03;;
13291;SDS011;6714;53.056;8.690;2023-05-10T10:36:10;1.80;;;1.70;;
13291;SDS011;6714;53.056;8.690;2023-05-10T10:38:54;1.40;;;1.40;;
13291;SDS011;6714;53.056;8.690;2023-05-10T10:41:41;1.60;;;1.50;;
13291;SDS011;6714;53.056;8.690;2023-05-10T10:44:36;1.77;;;1.67;;
13291;SDS011;6714;53.056;8.690;2023-05-10T10:47:21;1.67;;;1.67;;
13291;SDS011;6714;53.056;8.690;2023-05-10T10:50:06;1.50;;;1.40;;
13291;SDS011;6714;53.056;8.690;2023-05-10T10:52:49;1.60;;;1.60;;
13291;SDS011;6714;53.056;8.690;2023-05-10T10:55:33;1.50;;;1.50;;
13291;SDS011;6714;53.056;8.690;2023-05-10T10:58:28;1.50;;;1.40;;
13291;SDS011;6714;53.056;8.690;2023-05-10T11:01:12;1.57;;;1.57;;
13291;SDS011;6714;53.056;8.690;2023-05-10T11:04:16;1.43;;;1.43;;
13291;SDS011;6714;53.056;8.690;2023-05-10T11:09:55;1.40;;;1.40;;
13291;SDS011;6714;53.056;8.690;2023-05-10T11:12:50;1.43;;;1.43;;
13291;SDS011;6714;53.056;8.690;2023-05-10T11:15:33;1.83;;;1.73;;
13291;SDS011;6714;53.056;8.690;2023-05-10T11:18:16;1.60;;;1.60;;
13291;SDS011;6714;53.056;8.690;2023-05-10T11:21:00;1.47;;;1.37;;
13291;SDS011;6714;53.056;8.690;2023-05-10T11:23:50;1.40;;;1.40;;
13291;SDS011;6714;53.056;8.690;2023-05-10T11:26:34;1.30;;;1.30;;
13291;SDS011;6714;53.056;8.690;2023-05-10T11:29:16;1.10;;;1.10;;
13291;SDS011;6714;53.056;8.690;2023-05-10T11:31:59;1.37;;;1.37;;
13291;SDS011;6714;53.056;8.690;2023-05-10T11:34:41;1.17;;;1.17;;
13291;SDS011;6714;53.056;8.690;2023-05-10T11:37:23;1.27;;;1.20;;
13291;SDS011;6714;53.056;8.690;2023-05-10T11:40:07;0.83;;;0.83;;
13291;SDS011;6714;53.056;8.690;2023-05-10T11:42:51;1.17;;;1.17;;
13291;SDS011;6714;53.056;8.690;2023-05-10T11:45:34;0.90;;;0.90;;
13291;SDS011;6714;53.056;8.690;2023-05-10T11:48:16;0.80;;;0.80;;
13291;SDS011;6714;53.056;8.690;2023-05-10T11:51:02;1.00;;;1.00;;
13291;SDS011;6714;53.056;8.690;2023-05-10T11:53:44;0.73;;;0.73;;
13291;SDS011;6714;53.056;8.690;2023-05-10T11:56:27;1.00;;;1.00;;
13291;SDS011;6714;53.056;8.690;2023-05-10T11:59:13;1.10;;;0.90;;
13291;SDS011;6714;53.056;8.690;2023-05-10T12:01:56;0.90;;;0.90;;
13291;SDS011;6714;53.056;8.690;2023-05-10T12:04:39;0.80;;;0.80;;
13291;SDS011;6714;53.056;8.690;2023-05-10T12:07:21;0.90;;;0.90;;
13291;SDS011;6714;53.056;8.690;2023-05-10T12:10:07;0.80;;;0.80;;
13291;SDS011;6714;53.056;8.690;2023-05-10T12:12:51;0.90;;;0.90;;
13291;SDS011;6714;53.056;8.690;2023-05-10T12:15:35;0.80;;;0.80;;
13291;SDS011;6714;53.056;8.690;2023-05-10T12:18:22;0.70;;;0.70;;
13291;SDS011;6714;53.056;8.690;2023-05-10T12:21:05;0.70;;;0.70;;
13291;SDS011;6714;53.056;8.690;2023-05-10T12:23:47;0.83;;;0.83;;
13291;SDS011;6714;53.056;8.690;2023-05-10T12:26:30;0.43;;;0.43;;
13291;SDS011;6714;53.056;8.690;2023-05-10T12:29:13;0.70;;;0.70;;
13291;SDS011;6714;53.056;8.690;2023-05-10T12:31:57;0.93;;;0.83;;
13291;SDS011;6714;53.056;8.690;2023-05-10T12:34:39;0.53;;;0.53;;
13291;SDS011;6714;53.056;8.690;2023-05-10T12:37:23;0.70;;;0.70;;
13291;SDS011;6714;53.056;8.690;2023-05-10T12:40:06;0.60;;;0.60;;
13291;SDS011;6714;53.056;8.690;2023-05-10T12:42:49;0.90;;;0.90;;
13291;SDS011;6714;53.056;8.690;2023-05-10T12:45:32;0.77;;;0.77;;
13291;SDS011;6714;53.056;8.690;2023-05-10T12:48:16;0.83;;;0.83;;
13291;SDS011;6714;53.056;8.690;2023-05-10T12:50:59;0.60;;;0.60;;
13291;SDS011;6714;53.056;8.690;2023-05-10T12:53:42;0.80;;;0.80;;
13291;SDS011;6714;53.056;8.690;2023-05-10T12:56:28;0.80;;;0.80;;
13291;SDS011;6714;53.056;8.690;2023-05-10T12:59:10;0.70;;;0.70;;
13291;SDS011;6714;53.056;8.690;2023-05-10T13:01:53;1.80;;;1.40;;
13291;SDS011;6714;53.056;8.690;2023-05-10T13:04:38;1.10;;;1.00;;
13291;SDS011;6714;53.056;8.690;2023-05-10T13:07:20;0.73;;;0.73;;
13291;SDS011;6714;53.056;8.690;2023-05-10T13:10:02;0.80;;;0.80;;
13291;SDS011;6714;53.056;8.690;2023-05-10T13:12:44;1.10;;;1.00;;
13291;SDS011;6714;53.056;8.690;2023-05-10T13:15:27;1.00;;;1.00;;
13291;SDS011;6714;53.056;8.690;2023-05-10T13:18:09;1.10;;;1.10;;
13291;SDS011;6714;53.056;8.690;2023-05-10T13:20:53;0.90;;;0.90;;
13291;SDS011;6714;53.056;8.690;2023-05-10T13:23:35;0.80;;;0.80;;
13291;SDS011;6714;53.056;8.690;2023-05-10T13:26:17;1.20;;;1.10;;
13291;SDS011;6714;53.056;8.690;2023-05-10T13:29:00;1.20;;;1.20;;
13291;SDS011;6714;53.056;8.690;2023-05-10T13:31:44;1.20;;;1.20;;
13291;SDS011;6714;53.056;8.690;2023-05-10T13:34:26;0.80;;;0.80;;
13291;SDS011;6714;53.056;8.690;2023-05-10T13:37:09;0.60;;;0.60;;
13291;SDS011;6714;53.056;8.690;2023-05-10T13:39:52;1.40;;;1.37;;
13291;SDS011;6714;53.056;8.690;2023-05-10T13:42:37;0.50;;;0.50;;
13291;SDS011;6714;53.056;8.690;2023-05-10T13:45:19;0.90;;;0.90;;
13291;SDS011;6714;53.056;8.690;2023-05-10T13:48:01;1.17;;;1.17;;
13291;SDS011;6714;53.056;8.690;2023-05-10T13:50:44;1.03;;;1.03;;
13291;SDS011;6714;53.056;8.690;2023-05-10T13:53:27;1.50;;;1.47;;
13291;SDS011;6714;53.056;8.690;2023-05-10T13:56:09;0.60;;;0.60;;
13291;SDS011;6714;53.056;8.690;2023-05-10T13:58:52;1.17;;;1.07;;
13291;SDS011;6714;53.056;8.690;2023-05-10T14:01:34;1.10;;;1.10;;
13291;SDS011;6714;53.056;8.690;2023-05-10T14:04:16;0.70;;;0.70;;
13291;SDS011;6714;53.056;8.690;2023-05-10T14:06:58;0.93;;;0.93;;
13291;SDS011;6714;53.056;8.690;2023-05-10T14:09:42;0.97;;;0.97;;
13291;SDS011;6714;53.056;8.690;2023-05-10T14:12:24;0.80;;;0.77;;
13291;SDS011;6714;53.056;8.690;2023-05-10T14:15:07;0.70;;;0.70;;
13291;SDS011;6714;53.056;8.690;2023-05-10T14:17:51;0.83;;;0.80;;
13291;SDS011;6714;53.056;8.690;2023-05-10T14:20:33;0.80;;;0.80;;
13291;SDS011;6714;53.056;8.690;2023-05-10T14:23:15;0.57;;;0.57;;
13291;SDS011;6714;53.056;8.690;2023-05-10T14:26:00;0.97;;;0.70;;
13291;SDS011;6714;53.056;8.690;2023-05-10T14:28:43;1.00;;;1.00;;
13291;SDS011;6714;53.056;8.690;2023-05-10T14:31:25;0.60;;;0.60;;
13291;SDS011;6714;53.056;8.690;2023-05-10T14:34:07;0.90;;;0.90;;
13291;SDS011;6714;53.056;8.690;2023-05-10T14:36:50;0.70;;;0.70;;
13291;SDS011;6714;53.056;8.690;2023-05-10T14:39:32;0.60;;;0.60;;
13291;SDS011;6714;53.056;8.690;2023-05-10T14:42:16;1.00;;;0.90;;
13291;SDS011;6714;53.056;8.690;2023-05-10T14:44:58;1.13;;;1.13;;
13291;SDS011;6714;53.056;8.690;2023-05-10T14:47:40;0.98;;;0.98;;
13291;SDS011;6714;53.056;8.690;2023-05-10T14:50:22;1.17;;;1.02;;
13291;SDS011;6714;53.056;8.690;2023-05-10T14:53:05;1.45;;;1.40;;
13291;SDS011;6714;53.056;8.690;2023-05-10T14:55:47;1.00;;;1.00;;
13291;SDS011;6714;53.056;8.690;2023-05-10T14:58:31;0.82;;;0.82;;
13291;SDS011;6714;53.056;8.690;2023-05-10T15:01:13;0.90;;;0.90;;
13291;SDS011;6714;53.056;8.690;2023-05-10T15:03:55;1.05;;;1.05;;
13291;SDS011;6714;53.056;8.690;2023-05-10T15:06:37;1.00;;;1.00;;
13291;SDS011;6714;53.056;8.690;2023-05-10T15:09:19;1.15;;;1.15;;
13291;SDS011;6714;53.056;8.690;2023-05-10T15:12:02;0.98;;;0.93;;
13291;SDS011;6714;53.056;8.690;2023-05-10T15:14:45;1.00;;;1.00;;
13291;SDS011;6714;53.056;8.690;2023-05-10T15:17:28;1.42;;;1.42;;
13291;SDS011;6714;53.056;8.690;2023-05-10T15:20:10;1.30;;;1.20;;
13291;SDS011;6714;53.056;8.690;2023-05-10T15:22:52;1.25;;;1.25;;
13291;SDS011;6714;53.056;8.690;2023-05-10T15:25:34;1.15;;;1.15;;
13291;SDS011;6714;53.056;8.690;2023-05-10T15:28:17;1.33;;;1.33;;
13291;SDS011;6714;53.056;8.690;2023-05-10T15:31:01;1.02;;;1.02;;
13291;SDS011;6714;53.056;8.690;2023-05-10T15:33:43;1.08;;;1.08;;
13291;SDS011;6714;53.056;8.690;2023-05-10T15:36:25;0.90;;;0.90;;
13291;SDS011;6714;53.056;8.690;2023-05-10T15:39:07;1.30;;;1.07;;
13291;SDS011;6714;53.056;8.690;2023-05-10T15:41:50;0.80;;;0.80;;
13291;SDS011;6714;53.056;8.690;2023-05-10T15:44:32;0.83;;;0.83;;
13291;SDS011;6714;53.056;8.690;2023-05-10T15:47:16;1.13;;;1.13;;
13291;SDS011;6714;53.056;8.690;2023-05-10T15:49:58;0.90;;;0.90;;
13291;SDS011;6714;53.056;8.690;2023-05-10T15:52:40;0.80;;;0.80;;
13291;SDS011;6714;53.056;8.690;2023-05-10T15:55:24;0.80;;;0.80;;
13291;SDS011;6714;53.056;8.690;2023-05-10T15:58:07;2.53;;;0.90;;
13291;SDS011;6714;53.056;8.690;2023-05-10T16:00:50;0.80;;;0.80;;
13291;SDS011;6714;53.056;8.690;2023-05-10T16:03:34;0.80;;;0.80;;
13291;SDS011;6714;53.056;8.690;2023-05-10T16:06:16;1.00;;;1.00;;
13291;SDS011;6714;53.056;8.690;2023-05-10T16:08:58;0.80;;;0.80;;
13291;SDS011;6714;53.056;8.690;2023-05-10T16:11:41;0.90;;;0.90;;
13291;SDS011;6714;53.056;8.690;2023-05-10T16:14:23;0.90;;;0.90;;
13291;SDS011;6714;53.056;8.690;2023-05-10T16:17:05;0.80;;;0.80;;
13291;SDS011;6714;53.056;8.690;2023-05-10T16:19:49;1.07;;;1.07;;
13291;SDS011;6714;53.056;8.690;2023-05-10T16:22:31;1.10;;;1.00;;
13291;SDS011;6714;53.056;8.690;2023-05-10T16:25:13;1.67;;;1.30;;
13291;SDS011;6714;53.056;8.690;2023-05-10T16:27:56;1.20;;;1.20;;
13291;SDS011;6714;53.056;8.690;2023-05-10T16:30:38;0.70;;;0.70;;
13291;SDS011;6714;53.056;8.690;2023-05-10T16:33:20;0.83;;;0.83;;
13291;SDS011;6714;53.056;8.690;2023-05-10T16:36:04;1.10;;;1.10;;
13291;SDS011;6714;53.056;8.690;2023-05-10T16:38:46;1.10;;;1.00;;
13291;SDS011;6714;53.056;8.690;2023-05-10T16:41:29;0.93;;;0.93;;
13291;SDS011;6714;53.056;8.690;2023-05-10T16:44:13;3.70;;;1.30;;